sensor_id;sensor_type;location;lat;lon;timestamp;pressure;altitude;pressure_sealevel;temperature;humidity
11525;BME280;5819;49.648;8.330;2023-02-19T00:01:50;100898.03;;;10.40;100.00
11525;BME280;5819;49.648;8.330;2023-02-19T00:04:19;100905.50;;;10.24;100.00
11525;BME280;5819;49.648;8.330;2023-02-19T00:06:49;100891.06;;;10.14;100.00
11525;BME280;5819;49.648;8.330;2023-02-19T00:09:18;100895.59;;;10.08;100.00
11525;BME280;5819;49.648;8.330;2023-02-19T00:11:47;100901.00;;;10.02;100.00
11525;BME280;5819;49.648;8.330;2023-02-19T00:14:17;100892.25;;;10.04;100.00
11525;BME280;5819;49.648;8.330;2023-02-19T00:16:46;100901.66;;;10.08;100.00
11525;BME280;5819;49.648;8.330;2023-02-19T00:19:15;100901.13;;;9.97;100.00
11525;BME280;5819;49.648;8.330;2023-02-19T00:21:44;100896.72;;;9.99;100.00
11525;BME280;5819;49.648;8.330;2023-02-19T00:24:13;100903.59;;;10.02;100.00
11525;BME280;5819;49.648;8.330;2023-02-19T00:26:41;100901.91;;;10.01;100.00
11525;BME280;5819;49.648;8.330;2023-02-19T00:29:14;100894.56;;;10.15;100.00
11525;BME280;5819;49.648;8.330;2023-02-19T00:31:42;100900.66;;;10.12;100.00
11525;BME280;5819;49.648;8.330;2023-02-19T00:34:12;100882.66;;;10.34;100.00
11525;BME280;5819;49.648;8.330;2023-02-19T00:36:41;100879.78;;;10.15;100.00
11525;BME280;5819;49.648;8.330;2023-02-19T00:39:11;100884.28;;;10.10;100.00
11525;BME280;5819;49.648;8.330;2023-02-19T00:41:40;100881.25;;;10.24;100.00
11525;BME280;5819;49.648;8.330;2023-02-19T00:44:09;100874.25;;;10.26;100.00
11525;BME280;5819;49.648;8.330;2023-02-19T00:46:40;100886.50;;;10.22;100.00
11525;BME280;5819;49.648;8.330;2023-02-19T00:49:13;100889.09;;;10.22;100.00
11525;BME280;5819;49.648;8.330;2023-02-19T00:51:41;100886.75;;;10.13;100.00
11525;BME280;5819;49.648;8.330;2023-02-19T00:54:09;100880.06;;;10.06;100.00
11525;BME280;5819;49.648;8.330;2023-02-19T00:56:37;100879.22;;;10.06;100.00
11525;BME280;5819;49.648;8.330;2023-02-19T00:59:05;100890.00;;;9.94;100.00
11525;BME280;5819;49.648;8.330;2023-02-19T01:01:32;100908.19;;;9.94;100.00
11525;BME280;5819;49.648;8.330;2023-02-19T01:04:02;100906.19;;;10.02;100.00
11525;BME280;5819;49.648;8.330;2023-02-19T01:06:32;100905.44;;;9.98;100.00
11525;BME280;5819;49.648;8.330;2023-02-19T01:09:01;100896.59;;;10.04;100.00
11525;BME280;5819;49.648;8.330;2023-02-19T01:11:30;100895.75;;;10.03;100.00
11525;BME280;5819;49.648;8.330;2023-02-19T01:13:58;100862.91;;;10.01;100.00
11525;BME280;5819;49.648;8.330;2023-02-19T01:16:27;100873.28;;;10.02;100.00
11525;BME280;5819;49.648;8.330;2023-02-19T01:18:57;100875.19;;;9.96;100.00
11525;BME280;5819;49.648;8.330;2023-02-19T01:21:28;100871.69;;;9.97;100.00
11525;BME280;5819;49.648;8.330;2023-02-19T01:23:57;100877.66;;;10.00;100.00
11525;BME280;5819;49.648;8.330;2023-02-19T01:26:28;100874.34;;;9.95;100.00
11525;BME280;5819;49.648;8.330;2023-02-19T01:28:57;100867.50;;;9.93;100.00
11525;BME280;5819;49.648;8.330;2023-02-19T01:31:26;100868.09;;;10.01;100.00
11525;BME280;5819;49.648;8.330;2023-02-19T01:33:56;100879.34;;;10.01;100.00
11525;BME280;5819;49.648;8.330;2023-02-19T01:36:25;100877.00;;;9.94;100.00
11525;BME280;5819;49.648;8.330;2023-02-19T01:38:55;100863.16;;;9.93;100.00
11525;BME280;5819;49.648;8.330;2023-02-19T01:41:24;100859.59;;;9.96;100.00
11525;BME280;5819;49.648;8.330;2023-02-19T01:44:00;100854.25;;;10.00;100.00
11525;BME280;5819;49.648;8.330;2023-02-19T01:46:28;100864.72;;;9.99;100.00
11525;BME280;5819;49.648;8.330;2023-02-19T01:49:02;100858.75;;;9.95;100.00
11525;BME280;5819;49.648;8.330;2023-02-19T01:51:32;100860.69;;;9.88;100.00
11525;BME280;5819;49.648;8.330;2023-02-19T01:54:06;100859.75;;;9.91;100.00
11525;BME280;5819;49.648;8.330;2023-02-19T01:56:37;100850.72;;;10.03;100.00
11525;BME280;5819;49.648;8.330;2023-02-19T01:59:07;100850.88;;;9.98;100.00
11525;BME280;5819;49.648;8.330;2023-02-19T02:01:36;100843.25;;;10.20;100.00
11525;BME280;5819;49.648;8.330;2023-02-19T02:04:07;100837.16;;;10.21;100.00
11525;BME280;5819;49.648;8.330;2023-02-19T02:06:40;100838.22;;;10.14;100.00
11525;BME280;5819;49.648;8.330;2023-02-19T02:09:11;100839.72;;;10.22;100.00
11525;BME280;5819;49.648;8.330;2023-02-19T02:11:59;100836.56;;;10.11;100.00
11525;BME280;5819;49.648;8.330;2023-02-19T02:14:29;100836.75;;;10.07;100.00
11525;BME280;5819;49.648;8.330;2023-02-19T02:17:08;100843.06;;;9.98;100.00
11525;BME280;5819;49.648;8.330;2023-02-19T02:20:01;100834.13;;;10.07;100.00
11525;BME280;5819;49.648;8.330;2023-02-19T02:22:41;100822.81;;;10.08;100.00
11525;BME280;5819;49.648;8.330;2023-02-19T02:25:35;100820.22;;;10.08;100.00
11525;BME280;5819;49.648;8.330;2023-02-19T02:28:19;100809.38;;;9.95;100.00
11525;BME280;5819;49.648;8.330;2023-02-19T02:30:53;100808.44;;;9.98;100.00
11525;BME280;5819;49.648;8.330;2023-02-19T02:33:29;100807.69;;;9.94;100.00
11525;BME280;5819;49.648;8.330;2023-02-19T02:36:04;100806.47;;;10.04;100.00
11525;BME280;5819;49.648;8.330;2023-02-19T02:38:38;100799.69;;;10.00;100.00
11525;BME280;5819;49.648;8.330;2023-02-19T02:41:07;100808.44;;;9.98;100.00
11525;BME280;5819;49.648;8.330;2023-02-19T02:43:36;100811.22;;;9.92;100.00
11525;BME280;5819;49.648;8.330;2023-02-19T02:46:08;100794.00;;;9.89;100.00
11525;BME280;5819;49.648;8.330;2023-02-19T02:48:39;100785.22;;;9.92;100.00
11525;BME280;5819;49.648;8.330;2023-02-19T02:51:13;100800.78;;;9.67;100.00
11525;BME280;5819;49.648;8.330;2023-02-19T02:54:14;100809.38;;;9.69;100.00
11525;BME280;5819;49.648;8.330;2023-02-19T02:57:05;100807.38;;;9.77;100.00
11525;BME280;5819;49.648;8.330;2023-02-19T02:59:41;100788.94;;;9.84;100.00
11525;BME280;5819;49.648;8.330;2023-02-19T03:02:14;100794.13;;;9.84;100.00
11525;BME280;5819;49.648;8.330;2023-02-19T03:04:51;100793.09;;;9.90;100.00
11525;BME280;5819;49.648;8.330;2023-02-19T03:07:53;100792.19;;;9.91;100.00
11525;BME280;5819;49.648;8.330;2023-02-19T03:10:28;100790.25;;;9.98;100.00
11525;BME280;5819;49.648;8.330;2023-02-19T03:13:02;100791.00;;;10.01;100.00
11525;BME280;5819;49.648;8.330;2023-02-19T03:15:54;100781.09;;;10.12;100.00
11525;BME280;5819;49.648;8.330;2023-02-19T03:18:44;100789.66;;;9.90;100.00
11525;BME280;5819;49.648;8.330;2023-02-19T03:21:34;100792.50;;;9.82;100.00
11525;BME280;5819;49.648;8.330;2023-02-19T03:24:09;100783.59;;;9.89;100.00
11525;BME280;5819;49.648;8.330;2023-02-19T03:26:57;100776.41;;;9.97;100.00
11525;BME280;5819;49.648;8.330;2023-02-19T03:29:34;100778.41;;;9.89;100.00
11525;BME280;5819;49.648;8.330;2023-02-19T03:32:10;100788.91;;;9.86;100.00
11525;BME280;5819;49.648;8.330;2023-02-19T03:34:43;100786.59;;;9.77;100.00
11525;BME280;5819;49.648;8.330;2023-02-19T03:37:19;100779.38;;;9.86;100.00
11525;BME280;5819;49.648;8.330;2023-02-19T03:39:52;100777.03;;;10.04;100.00
11525;BME280;5819;49.648;8.330;2023-02-19T03:42:30;100777.66;;;9.85;100.00
11525;BME280;5819;49.648;8.330;2023-02-19T03:45:15;100777.91;;;9.78;100.00
11525;BME280;5819;49.648;8.330;2023-02-19T03:47:50;100785.97;;;9.95;100.00
11525;BME280;5819;49.648;8.330;2023-02-19T03:50:23;100779.25;;;9.90;100.00
11525;BME280;5819;49.648;8.330;2023-02-19T03:52:59;100784.88;;;9.76;100.00
11525;BME280;5819;49.648;8.330;2023-02-19T03:55:35;100791.91;;;9.74;100.00
11525;BME280;5819;49.648;8.330;2023-02-19T03:58:11;100800.84;;;9.64;100.00
11525;BME280;5819;49.648;8.330;2023-02-19T04:00:46;100807.28;;;9.80;100.00
11525;BME280;5819;49.648;8.330;2023-02-19T04:03:19;100814.91;;;9.84;100.00
11525;BME280;5819;49.648;8.330;2023-02-19T04:05:55;100823.84;;;9.76;100.00
11525;BME280;5819;49.648;8.330;2023-02-19T04:08:28;100815.31;;;9.72;100.00
11525;BME280;5819;49.648;8.330;2023-02-19T04:11:02;100804.06;;;9.72;100.00
11525;BME280;5819;49.648;8.330;2023-02-19T04:13:36;100799.97;;;9.65;100.00
11525;BME280;5819;49.648;8.330;2023-02-19T04:16:07;100813.59;;;9.71;100.00
11525;BME280;5819;49.648;8.330;2023-02-19T04:18:38;100808.22;;;9.77;100.00
11525;BME280;5819;49.648;8.330;2023-02-19T04:21:09;100808.50;;;9.68;100.00
11525;BME280;5819;49.648;8.330;2023-02-19T04:23:41;100810.97;;;9.73;100.00
11525;BME280;5819;49.648;8.330;2023-02-19T04:26:11;100798.59;;;9.81;100.00
11525;BME280;5819;49.648;8.330;2023-02-19T04:28:40;100791.69;;;9.80;100.00
11525;BME280;5819;49.648;8.330;2023-02-19T04:31:10;100794.41;;;9.75;100.00
11525;BME280;5819;49.648;8.330;2023-02-19T04:33:38;100799.75;;;9.71;100.00
11525;BME280;5819;49.648;8.330;2023-02-19T04:36:10;100795.63;;;9.65;100.00
11525;BME280;5819;49.648;8.330;2023-02-19T04:38:38;100805.53;;;9.53;100.00
11525;BME280;5819;49.648;8.330;2023-02-19T04:41:07;100803.31;;;9.68;100.00
11525;BME280;5819;49.648;8.330;2023-02-19T04:43:35;100812.22;;;9.61;100.00
11525;BME280;5819;49.648;8.330;2023-02-19T04:46:03;100820.41;;;9.48;100.00
11525;BME280;5819;49.648;8.330;2023-02-19T04:48:31;100813.44;;;9.50;100.00
11525;BME280;5819;49.648;8.330;2023-02-19T04:50:59;100814.34;;;9.47;100.00
11525;BME280;5819;49.648;8.330;2023-02-19T04:53:32;100823.19;;;9.42;100.00
11525;BME280;5819;49.648;8.330;2023-02-19T04:56:05;100811.50;;;9.56;100.00
11525;BME280;5819;49.648;8.330;2023-02-19T04:58:33;100811.97;;;9.69;100.00
11525;BME280;5819;49.648;8.330;2023-02-19T05:01:01;100808.84;;;9.85;100.00
11525;BME280;5819;49.648;8.330;2023-02-19T05:03:29;100822.72;;;9.84;100.00
11525;BME280;5819;49.648;8.330;2023-02-19T05:06:01;100824.00;;;9.71;100.00
11525;BME280;5819;49.648;8.330;2023-02-19T05:08:29;100826.19;;;9.57;100.00
11525;BME280;5819;49.648;8.330;2023-02-19T05:10:59;100826.16;;;9.59;100.00
11525;BME280;5819;49.648;8.330;2023-02-19T05:13:27;100842.66;;;9.56;100.00
11525;BME280;5819;49.648;8.330;2023-02-19T05:15:57;100846.13;;;9.55;100.00
11525;BME280;5819;49.648;8.330;2023-02-19T05:18:25;100846.34;;;9.49;100.00
11525;BME280;5819;49.648;8.330;2023-02-19T05:20:53;100859.28;;;9.51;100.00
11525;BME280;5819;49.648;8.330;2023-02-19T05:23:21;100851.94;;;9.35;100.00
11525;BME280;5819;49.648;8.330;2023-02-19T05:25:48;100863.13;;;9.37;100.00
11525;BME280;5819;49.648;8.330;2023-02-19T05:28:18;100862.38;;;9.34;100.00
11525;BME280;5819;49.648;8.330;2023-02-19T05:30:48;100862.59;;;9.26;100.00
11525;BME280;5819;49.648;8.330;2023-02-19T05:33:18;100847.69;;;9.33;100.00
11525;BME280;5819;49.648;8.330;2023-02-19T05:35:48;100843.16;;;9.39;100.00
11525;BME280;5819;49.648;8.330;2023-02-19T05:38:16;100840.38;;;9.46;100.00
11525;BME280;5819;49.648;8.330;2023-02-19T05:40:44;100843.91;;;9.43;100.00
11525;BME280;5819;49.648;8.330;2023-02-19T05:43:13;100851.31;;;9.27;100.00
11525;BME280;5819;49.648;8.330;2023-02-19T05:45:42;100856.78;;;9.18;100.00
11525;BME280;5819;49.648;8.330;2023-02-19T05:48:10;100850.84;;;9.13;100.00
11525;BME280;5819;49.648;8.330;2023-02-19T05:50:38;100844.06;;;9.09;100.00
11525;BME280;5819;49.648;8.330;2023-02-19T05:53:15;100851.84;;;9.09;100.00
11525;BME280;5819;49.648;8.330;2023-02-19T05:55:43;100845.81;;;9.07;100.00
11525;BME280;5819;49.648;8.330;2023-02-19T05:58:11;100858.22;;;8.98;100.00
11525;BME280;5819;49.648;8.330;2023-02-19T06:00:39;100862.72;;;8.91;100.00
11525;BME280;5819;49.648;8.330;2023-02-19T06:03:08;100873.25;;;8.86;100.00
11525;BME280;5819;49.648;8.330;2023-02-19T06:05:36;100881.81;;;8.88;100.00
11525;BME280;5819;49.648;8.330;2023-02-19T06:08:04;100865.53;;;8.83;100.00
11525;BME280;5819;49.648;8.330;2023-02-19T06:10:33;100877.63;;;8.83;100.00
11525;BME280;5819;49.648;8.330;2023-02-19T06:13:02;100891.53;;;8.82;100.00
11525;BME280;5819;49.648;8.330;2023-02-19T06:15:29;100883.00;;;8.77;100.00
11525;BME280;5819;49.648;8.330;2023-02-19T06:17:57;100878.75;;;8.74;100.00
11525;BME280;5819;49.648;8.330;2023-02-19T06:20:27;100884.06;;;8.70;100.00
11525;BME280;5819;49.648;8.330;2023-02-19T06:22:55;100877.16;;;8.69;100.00
11525;BME280;5819;49.648;8.330;2023-02-19T06:25:23;100889.13;;;8.74;100.00
11525;BME280;5819;49.648;8.330;2023-02-19T06:27:50;100892.81;;;8.66;100.00
11525;BME280;5819;49.648;8.330;2023-02-19T06:30:18;100896.31;;;8.63;100.00
11525;BME280;5819;49.648;8.330;2023-02-19T06:32:46;100896.50;;;8.57;100.00
11525;BME280;5819;49.648;8.330;2023-02-19T06:35:14;100901.50;;;8.63;100.00
11525;BME280;5819;49.648;8.330;2023-02-19T06:37:45;100911.03;;;8.63;100.00
11525;BME280;5819;49.648;8.330;2023-02-19T06:40:13;100904.84;;;8.68;100.00
11525;BME280;5819;49.648;8.330;2023-02-19T06:42:41;100914.28;;;8.71;100.00
11525;BME280;5819;49.648;8.330;2023-02-19T06:45:08;100915.06;;;8.74;100.00
11525;BME280;5819;49.648;8.330;2023-02-19T06:47:36;100923.22;;;8.93;100.00
11525;BME280;5819;49.648;8.330;2023-02-19T06:50:05;100925.03;;;8.89;100.00
11525;BME280;5819;49.648;8.330;2023-02-19T06:52:32;100936.91;;;8.98;100.00
11525;BME280;5819;49.648;8.330;2023-02-19T06:55:02;100945.50;;;9.00;100.00
11525;BME280;5819;49.648;8.330;2023-02-19T06:57:30;100950.66;;;9.02;100.00
11525;BME280;5819;49.648;8.330;2023-02-19T06:59:58;100947.09;;;9.06;100.00
11525;BME280;5819;49.648;8.330;2023-02-19T07:02:26;100947.78;;;9.11;100.00
11525;BME280;5819;49.648;8.330;2023-02-19T07:04:54;100953.59;;;9.20;100.00
11525;BME280;5819;49.648;8.330;2023-02-19T07:07:22;100949.94;;;9.27;100.00
11525;BME280;5819;49.648;8.330;2023-02-19T07:09:50;100961.16;;;9.29;100.00
11525;BME280;5819;49.648;8.330;2023-02-19T07:12:19;100960.81;;;9.42;100.00
11525;BME280;5819;49.648;8.330;2023-02-19T07:14:46;100953.88;;;9.42;100.00
11525;BME280;5819;49.648;8.330;2023-02-19T07:17:14;100962.25;;;9.52;100.00
11525;BME280;5819;49.648;8.330;2023-02-19T07:19:42;100951.00;;;9.51;100.00
11525;BME280;5819;49.648;8.330;2023-02-19T07:22:10;100943.84;;;9.59;100.00
11525;BME280;5819;49.648;8.330;2023-02-19T07:24:38;100943.06;;;9.57;100.00
11525;BME280;5819;49.648;8.330;2023-02-19T07:27:06;100954.41;;;9.55;100.00
11525;BME280;5819;49.648;8.330;2023-02-19T07:29:35;100955.19;;;9.57;100.00
11525;BME280;5819;49.648;8.330;2023-02-19T07:32:04;100950.09;;;9.54;100.00
11525;BME280;5819;49.648;8.330;2023-02-19T07:34:32;100961.03;;;9.63;100.00
11525;BME280;5819;49.648;8.330;2023-02-19T07:37:00;100967.78;;;9.70;100.00
11525;BME280;5819;49.648;8.330;2023-02-19T07:39:28;100977.09;;;9.77;100.00
11525;BME280;5819;49.648;8.330;2023-02-19T07:41:56;100985.75;;;9.78;100.00
11525;BME280;5819;49.648;8.330;2023-02-19T07:44:25;100978.66;;;9.83;100.00
11525;BME280;5819;49.648;8.330;2023-02-19T07:46:55;100983.06;;;9.81;100.00
11525;BME280;5819;49.648;8.330;2023-02-19T07:49:22;100992.25;;;9.91;100.00
11525;BME280;5819;49.648;8.330;2023-02-19T07:51:50;100990.53;;;9.92;100.00
11525;BME280;5819;49.648;8.330;2023-02-19T07:54:18;100992.19;;;9.94;100.00
11525;BME280;5819;49.648;8.330;2023-02-19T07:56:46;100996.69;;;9.87;100.00
11525;BME280;5819;49.648;8.330;2023-02-19T07:59:14;100989.47;;;9.99;100.00
11525;BME280;5819;49.648;8.330;2023-02-19T08:01:44;100991.34;;;9.94;100.00
11525;BME280;5819;49.648;8.330;2023-02-19T08:04:31;100997.44;;;9.93;100.00
11525;BME280;5819;49.648;8.330;2023-02-19T08:06:59;101002.66;;;9.91;100.00
11525;BME280;5819;49.648;8.330;2023-02-19T08:09:28;100997.28;;;9.99;100.00
11525;BME280;5819;49.648;8.330;2023-02-19T08:11:55;101013.78;;;9.96;100.00
11525;BME280;5819;49.648;8.330;2023-02-19T08:14:41;101017.25;;;9.97;100.00
11525;BME280;5819;49.648;8.330;2023-02-19T08:17:09;101032.78;;;9.98;100.00
11525;BME280;5819;49.648;8.330;2023-02-19T08:19:38;101030.09;;;10.01;100.00
11525;BME280;5819;49.648;8.330;2023-02-19T08:22:07;101027.50;;;10.01;100.00
11525;BME280;5819;49.648;8.330;2023-02-19T08:24:34;101021.72;;;10.22;100.00
11525;BME280;5819;49.648;8.330;2023-02-19T08:27:03;101037.19;;;10.27;100.00
11525;BME280;5819;49.648;8.330;2023-02-19T08:29:30;101034.34;;;10.35;100.00
11525;BME280;5819;49.648;8.330;2023-02-19T08:32:01;101038.25;;;10.48;100.00
11525;BME280;5819;49.648;8.330;2023-02-19T08:34:29;101043.53;;;10.45;100.00
11525;BME280;5819;49.648;8.330;2023-02-19T08:36:58;101047.81;;;10.75;100.00
11525;BME280;5819;49.648;8.330;2023-02-19T08:39:27;101045.88;;;10.80;100.00
11525;BME280;5819;49.648;8.330;2023-02-19T08:41:55;101047.03;;;10.99;100.00
11525;BME280;5819;49.648;8.330;2023-02-19T08:44:23;101053.31;;;11.18;100.00
11525;BME280;5819;49.648;8.330;2023-02-19T08:46:51;101061.94;;;10.94;100.00
11525;BME280;5819;49.648;8.330;2023-02-19T08:49:18;101068.28;;;10.86;100.00
11525;BME280;5819;49.648;8.330;2023-02-19T08:51:46;101077.31;;;10.74;100.00
11525;BME280;5819;49.648;8.330;2023-02-19T08:54:15;101083.19;;;10.80;100.00
11525;BME280;5819;49.648;8.330;2023-02-19T08:56:43;101081.84;;;10.67;100.00
11525;BME280;5819;49.648;8.330;2023-02-19T08:59:10;101095.16;;;10.58;100.00
11525;BME280;5819;49.648;8.330;2023-02-19T09:01:38;101098.16;;;10.45;100.00
11525;BME280;5819;49.648;8.330;2023-02-19T09:04:08;101104.13;;;10.48;100.00
11525;BME280;5819;49.648;8.330;2023-02-19T09:06:38;101108.66;;;10.42;100.00
11525;BME280;5819;49.648;8.330;2023-02-19T09:09:06;101101.66;;;10.44;100.00
11525;BME280;5819;49.648;8.330;2023-02-19T09:11:37;101097.75;;;10.58;100.00
11525;BME280;5819;49.648;8.330;2023-02-19T09:14:05;101092.56;;;10.58;100.00
11525;BME280;5819;49.648;8.330;2023-02-19T09:16:34;101094.41;;;10.55;100.00
11525;BME280;5819;49.648;8.330;2023-02-19T09:19:02;101101.78;;;10.68;100.00
11525;BME280;5819;49.648;8.330;2023-02-19T09:21:30;101086.38;;;10.62;100.00
11525;BME280;5819;49.648;8.330;2023-02-19T09:23:58;101089.13;;;10.84;100.00
11525;BME280;5819;49.648;8.330;2023-02-19T09:26:26;101083.13;;;10.82;100.00
11525;BME280;5819;49.648;8.330;2023-02-19T09:28:56;101087.63;;;10.77;100.00
11525;BME280;5819;49.648;8.330;2023-02-19T09:31:23;101099.38;;;10.90;100.00
11525;BME280;5819;49.648;8.330;2023-02-19T09:33:51;101108.97;;;10.88;100.00
11525;BME280;5819;49.648;8.330;2023-02-19T09:36:19;101112.47;;;10.87;100.00
11525;BME280;5819;49.648;8.330;2023-02-19T09:38:47;101104.50;;;10.92;100.00
11525;BME280;5819;49.648;8.330;2023-02-19T09:41:17;101113.19;;;11.18;100.00
11525;BME280;5819;49.648;8.330;2023-02-19T09:43:50;101101.41;;;11.33;100.00
11525;BME280;5819;49.648;8.330;2023-02-19T09:46:27;101105.06;;;11.27;100.00
11525;BME280;5819;49.648;8.330;2023-02-19T09:49:02;101110.22;;;11.29;100.00
11525;BME280;5819;49.648;8.330;2023-02-19T09:51:33;101111.63;;;11.13;100.00
11525;BME280;5819;49.648;8.330;2023-02-19T09:54:03;101106.22;;;10.93;100.00
11525;BME280;5819;49.648;8.330;2023-02-19T09:56:33;101107.81;;;10.97;100.00
11525;BME280;5819;49.648;8.330;2023-02-19T09:59:02;101126.69;;;11.03;100.00
11525;BME280;5819;49.648;8.330;2023-02-19T10:01:36;101133.28;;;11.15;100.00
11525;BME280;5819;49.648;8.330;2023-02-19T10:04:06;101133.09;;;11.19;100.00
11525;BME280;5819;49.648;8.330;2023-02-19T10:06:33;101126.81;;;11.26;100.00
11525;BME280;5819;49.648;8.330;2023-02-19T10:09:16;101117.19;;;11.28;100.00
11525;BME280;5819;49.648;8.330;2023-02-19T10:11:48;101120.09;;;11.19;100.00
11525;BME280;5819;49.648;8.330;2023-02-19T10:14:19;101122.25;;;11.33;100.00
11525;BME280;5819;49.648;8.330;2023-02-19T10:16:50;101124.84;;;11.59;100.00
11525;BME280;5819;49.648;8.330;2023-02-19T10:19:18;101121.16;;;11.91;100.00
11525;BME280;5819;49.648;8.330;2023-02-19T10:21:47;101120.72;;;12.27;99.13
11525;BME280;5819;49.648;8.330;2023-02-19T10:24:20;101114.16;;;12.61;94.36
11525;BME280;5819;49.648;8.330;2023-02-19T10:26:48;101118.00;;;12.75;93.89
11525;BME280;5819;49.648;8.330;2023-02-19T10:29:16;101119.25;;;12.88;92.76
11525;BME280;5819;49.648;8.330;2023-02-19T10:31:46;101117.72;;;12.82;92.62
11525;BME280;5819;49.648;8.330;2023-02-19T10:34:18;101122.31;;;12.97;93.18
11525;BME280;5819;49.648;8.330;2023-02-19T10:36:48;101117.59;;;13.07;91.42
11525;BME280;5819;49.648;8.330;2023-02-19T10:39:35;101110.34;;;13.35;90.84
11525;BME280;5819;49.648;8.330;2023-02-19T10:42:05;101105.66;;;13.64;89.30
11525;BME280;5819;49.648;8.330;2023-02-19T10:44:42;101119.75;;;13.39;88.41
11525;BME280;5819;49.648;8.330;2023-02-19T10:47:17;101105.31;;;13.71;87.49
11525;BME280;5819;49.648;8.330;2023-02-19T10:49:49;101102.44;;;13.77;85.99
11525;BME280;5819;49.648;8.330;2023-02-19T10:52:20;101111.97;;;13.98;85.14
11525;BME280;5819;49.648;8.330;2023-02-19T10:54:51;101118.44;;;13.49;84.59
11525;BME280;5819;49.648;8.330;2023-02-19T10:57:25;101125.28;;;13.11;85.70
11525;BME280;5819;49.648;8.330;2023-02-19T11:00:00;101125.13;;;13.15;86.33
11525;BME280;5819;49.648;8.330;2023-02-19T11:02:30;101134.09;;;13.07;86.40
11525;BME280;5819;49.648;8.330;2023-02-19T11:05:05;101142.63;;;13.12;86.24
11525;BME280;5819;49.648;8.330;2023-02-19T11:07:43;101160.72;;;12.95;86.52
11525;BME280;5819;49.648;8.330;2023-02-19T11:10:22;101165.44;;;12.86;87.59
11525;BME280;5819;49.648;8.330;2023-02-19T11:12:54;101157.72;;;12.83;87.49
11525;BME280;5819;49.648;8.330;2023-02-19T11:15:25;101165.00;;;12.96;87.40
11525;BME280;5819;49.648;8.330;2023-02-19T11:17:56;101163.53;;;12.89;87.31
11525;BME280;5819;49.648;8.330;2023-02-19T11:20:27;101161.84;;;12.88;86.99
11525;BME280;5819;49.648;8.330;2023-02-19T11:23:15;101169.06;;;12.82;88.12
11525;BME280;5819;49.648;8.330;2023-02-19T11:26:37;101158.94;;;12.74;86.80
11525;BME280;5819;49.648;8.330;2023-02-19T11:29:15;101161.97;;;12.85;87.22
11525;BME280;5819;49.648;8.330;2023-02-19T11:34:45;101154.44;;;12.78;84.75
11525;BME280;5819;49.648;8.330;2023-02-19T11:37:16;101150.38;;;12.71;82.15
11525;BME280;5819;49.648;8.330;2023-02-19T11:39:46;101159.28;;;12.42;82.83
11525;BME280;5819;49.648;8.330;2023-02-19T11:42:28;101172.16;;;12.46;81.94
11525;BME280;5819;49.648;8.330;2023-02-19T11:45:19;101171.53;;;12.63;81.93
11525;BME280;5819;49.648;8.330;2023-02-19T11:48:19;101179.69;;;12.77;82.06
11525;BME280;5819;49.648;8.330;2023-02-19T11:51:09;101170.22;;;12.96;81.59
11525;BME280;5819;49.648;8.330;2023-02-19T11:53:46;101159.28;;;13.32;81.84
11525;BME280;5819;49.648;8.330;2023-02-19T11:56:18;101166.81;;;13.39;83.02
11525;BME280;5819;49.648;8.330;2023-02-19T11:58:59;101166.50;;;13.03;80.58
11525;BME280;5819;49.648;8.330;2023-02-19T12:01:37;101170.59;;;13.09;82.42
11525;BME280;5819;49.648;8.330;2023-02-19T12:04:25;101188.34;;;13.01;81.73
11525;BME280;5819;49.648;8.330;2023-02-19T12:07:10;101181.91;;;13.09;81.24
11525;BME280;5819;49.648;8.330;2023-02-19T12:09:54;101184.97;;;13.21;81.71
11525;BME280;5819;49.648;8.330;2023-02-19T12:12:46;101185.09;;;13.18;82.02
11525;BME280;5819;49.648;8.330;2023-02-19T12:15:31;101191.41;;;13.12;83.82
11525;BME280;5819;49.648;8.330;2023-02-19T12:21:13;101176.50;;;12.69;83.07
11525;BME280;5819;49.648;8.330;2023-02-19T12:24:05;101180.53;;;12.78;82.46
11525;BME280;5819;49.648;8.330;2023-02-19T12:26:43;101167.50;;;12.78;82.52
11525;BME280;5819;49.648;8.330;2023-02-19T12:29:25;101170.28;;;12.50;82.43
11525;BME280;5819;49.648;8.330;2023-02-19T12:32:20;101151.13;;;12.73;81.09
11525;BME280;5819;49.648;8.330;2023-02-19T12:35:36;101154.00;;;13.11;78.50
11525;BME280;5819;49.648;8.330;2023-02-19T12:38:17;101156.81;;;13.05;79.24
11525;BME280;5819;49.648;8.330;2023-02-19T12:40:57;101148.94;;;13.07;77.93
11525;BME280;5819;49.648;8.330;2023-02-19T12:43:31;101156.94;;;13.02;78.09
11525;BME280;5819;49.648;8.330;2023-02-19T12:46:04;101144.50;;;13.31;77.97
11525;BME280;5819;49.648;8.330;2023-02-19T12:48:39;101148.69;;;13.35;77.84
11525;BME280;5819;49.648;8.330;2023-02-19T12:51:16;101151.38;;;13.33;77.84
11525;BME280;5819;49.648;8.330;2023-02-19T12:53:48;101154.66;;;13.38;77.37
11525;BME280;5819;49.648;8.330;2023-02-19T12:56:27;101153.75;;;13.39;78.25
11525;BME280;5819;49.648;8.330;2023-02-19T12:59:00;101146.22;;;13.32;78.24
11525;BME280;5819;49.648;8.330;2023-02-19T13:01:38;101144.78;;;13.01;78.19
11525;BME280;5819;49.648;8.330;2023-02-19T13:04:16;101148.38;;;12.99;78.13
11525;BME280;5819;49.648;8.330;2023-02-19T13:06:52;101143.88;;;13.02;77.77
11525;BME280;5819;49.648;8.330;2023-02-19T13:09:28;101142.78;;;13.08;78.16
11525;BME280;5819;49.648;8.330;2023-02-19T13:12:03;101147.34;;;13.25;77.53
11525;BME280;5819;49.648;8.330;2023-02-19T13:14:37;101148.66;;;13.15;78.89
11525;BME280;5819;49.648;8.330;2023-02-19T13:17:17;101156.63;;;13.11;77.84
11525;BME280;5819;49.648;8.330;2023-02-19T13:19:50;101144.78;;;13.01;79.17
11525;BME280;5819;49.648;8.330;2023-02-19T13:22:29;101138.25;;;13.13;77.39
11525;BME280;5819;49.648;8.330;2023-02-19T13:25:17;101129.16;;;13.23;77.24
11525;BME280;5819;49.648;8.330;2023-02-19T13:27:57;101134.41;;;13.22;77.01
11525;BME280;5819;49.648;8.330;2023-02-19T13:30:40;101135.31;;;13.21;77.13
11525;BME280;5819;49.648;8.330;2023-02-19T13:33:25;101132.06;;;13.16;76.47